HomeShort term forecast

Short term forecast

Graphical weather forecast for the next 48 hours for Montreal:
Short term forecast
This weather forecast is automatically refreshed every 3 hours.

Hourly Experimental Forecast for the next 48 hours

Overall summary: Rain tomorrow morning and night.

 Date & Hour   Temp   Feel   Baro   Hum   Speed & Bearing   Wind Gust   Precip.%   Precip.   Visibility   Cloud cover   Conditions 
 19/05/2019 - 03:00  13.4°C  13.4°C  1016.8 hPa  68%  3.7 km/h   7.9 km/h  100%  0.26 mm/h  16.1km  100%  Light Rain 
 19/05/2019 - 04:00  12.9°C  12.9°C  1016.7 hPa  71%  6.2 km/h   14.3 km/h  68%  0.05 mm/h  16.1km  100%  Overcast 
 19/05/2019 - 05:00  12.1°C  12.1°C  1016.5 hPa  77%  8.1 km/h   17.4 km/h  7%  0.04 mm/h  16.1km  100%  Overcast 
 19/05/2019 - 06:00  11.3°C  11.3°C  1016.7 hPa  81%  11.2 km/h   22.3 km/h  14%  0.10 mm/h  16.1km  100%  Overcast 
 19/05/2019 - 07:00  11.0°C  11.0°C  1016.2 hPa  82%  12.8 km/h   25.5 km/h  42%  0.28 mm/h  16.1km  82%  Mostly Cloudy 
 19/05/2019 - 08:00  11.1°C  11.1°C  1015.9 hPa  85%  14.1 km/h   27.1 km/h  63%  0.52 mm/h  16.1km  99%  Overcast 
 19/05/2019 - 09:00  11.2°C  11.2°C  1015.7 hPa  85%  14.5 km/h   28.8 km/h  68%  0.57 mm/h  15.7km  100%  Light Rain 
 19/05/2019 - 10:00  11.7°C  11.7°C  1015.3 hPa  84%  15.5 km/h   30.6 km/h  70%  0.82 mm/h  15.6km  100%  Light Rain 
 19/05/2019 - 11:00  11.7°C  11.7°C  1015.4 hPa  86%  15.7 km/h   28.8 km/h  70%  1.07 mm/h  15.2km  100%  Light Rain 
 19/05/2019 - 12:00  12.1°C  12.1°C  1014.9 hPa  87%  15.6 km/h   27.7 km/h  54%  0.65 mm/h  14.9km  100%  Overcast 
 19/05/2019 - 13:00  12.9°C  12.9°C  1014.5 hPa  84%  14.7 km/h   24.0 km/h  25%  0.19 mm/h  16.0km  100%  Overcast 
 19/05/2019 - 14:00  14.5°C  14.5°C  1013.9 hPa  79%  14.0 km/h   19.2 km/h  6%  0.04 mm/h  16.1km  100%  Overcast 
 19/05/2019 - 15:00  15.1°C  15.1°C  1013.8 hPa  78%  14.1 km/h   16.9 km/h  0%  --  16.1km  98%  Overcast 
 19/05/2019 - 16:00  16.1°C  16.1°C  1013.3 hPa  75%  13.6 km/h   14.4 km/h  2%  0.04 mm/h  16.1km  91%  Mostly Cloudy 
 19/05/2019 - 17:00  17.2°C  17.2°C  1012.6 hPa  70%  14.4 km/h   14.5 km/h  2%  0.01 mm/h  16.1km  94%  Overcast 
 19/05/2019 - 18:00  16.4°C  16.4°C  1012.1 hPa  75%  14.4 km/h   18.0 km/h  5%  0.07 mm/h  16.1km  88%  Mostly Cloudy 
 19/05/2019 - 19:00  16.4°C  16.4°C  1011.7 hPa  76%  14.4 km/h   23.5 km/h  18%  0.27 mm/h  16.1km  81%  Mostly Cloudy 
 19/05/2019 - 20:00  15.4°C  15.4°C  1011.2 hPa  81%  14.5 km/h   27.6 km/h  41%  0.47 mm/h  16.1km  78%  Mostly Cloudy 
 19/05/2019 - 21:00  14.9°C  14.9°C  1010.5 hPa  82%  14.9 km/h   29.4 km/h  38%  0.37 mm/h  16.1km  83%  Mostly Cloudy 
 19/05/2019 - 22:00  14.4°C  14.4°C  1009.7 hPa  84%  15.3 km/h   30.1 km/h  33%  0.23 mm/h  16.1km  93%  Mostly Cloudy 
 19/05/2019 - 23:00  14.1°C  14.1°C  1008.8 hPa  85%  15.0 km/h   29.3 km/h  33%  0.24 mm/h  16.1km  100%  Overcast 
 20/05/2019 - 00:00  14.0°C  14.0°C  1007.7 hPa  85%  12.9 km/h   24.2 km/h  48%  0.58 mm/h  16.1km  100%  Overcast 
 20/05/2019 - 01:00  14.1°C  14.1°C  1006.4 hPa  85%  10.1 km/h   17.5 km/h  65%  1.44 mm/h  16.1km  100%  Rain 
 20/05/2019 - 02:00  14.5°C  14.5°C  1005.4 hPa  85%  8.5 km/h   15.7 km/h  73%  2.04 mm/h  16.1km  100%  Rain 
 20/05/2019 - 03:00  15.2°C  15.2°C  1004.8 hPa  85%  9.0 km/h   24.0 km/h  67%  1.36 mm/h  16.1km  99%  Rain 
 20/05/2019 - 04:00  15.7°C  15.7°C  1004.5 hPa  87%  11.0 km/h   37.3 km/h  34%  0.44 mm/h  16.1km  98%  Overcast 
 20/05/2019 - 05:00  16.2°C  16.2°C  1004.2 hPa  88%  13.6 km/h   46.9 km/h  22%  0.08 mm/h  16.1km  96%  Overcast 
 20/05/2019 - 06:00  17.1°C  17.2°C  1004.1 hPa  88%  15.8 km/h   49.2 km/h  14%  0.02 mm/h  16.1km  89%  Mostly Cloudy 
 20/05/2019 - 07:00  18.2°C  18.4°C  1004.1 hPa  86%  17.9 km/h   47.7 km/h  0%  --  16.1km  81%  Mostly Cloudy 
 20/05/2019 - 08:00  19.2°C  19.4°C  1004.0 hPa  85%  19.9 km/h   45.2 km/h  12%  0.02 mm/h  16.1km  74%  Mostly Cloudy 
 20/05/2019 - 09:00  19.3°C  19.5°C  1003.5 hPa  86%  21.3 km/h   40.9 km/h  19%  0.27 mm/h  16.1km  67%  Mostly Cloudy 
 20/05/2019 - 10:00  20.4°C  20.7°C  1002.8 hPa  81%  22.5 km/h   35.3 km/h  35%  1.15 mm/h  16.1km  61%  Light Rain 
 20/05/2019 - 11:00  21.5°C  21.7°C  1002.3 hPa  76%  24.1 km/h   32.0 km/h  39%  1.80 mm/h  14.3km  57%  Rain 
 20/05/2019 - 12:00  22.5°C  22.6°C  1001.9 hPa  70%  26.1 km/h   33.0 km/h  22%  1.10 mm/h  15.0km  57%  Possible Light Rain and Breezy 
 20/05/2019 - 13:00  23.1°C  23.1°C  1001.6 hPa  64%  28.0 km/h   36.3 km/h  9%  0.30 mm/h  16.1km  59%  Breezy and Partly Cloudy 
 20/05/2019 - 14:00  23.4°C  23.4°C  1001.3 hPa  60%  29.6 km/h   38.9 km/h  7%  0.17 mm/h  16.1km  59%  Breezy and Partly Cloudy 
 20/05/2019 - 15:00  22.9°C  22.9°C  1000.9 hPa  61%  30.6 km/h   39.6 km/h  9%  0.23 mm/h  16.1km  56%  Breezy and Partly Cloudy 
 20/05/2019 - 16:00  22.0°C  22.0°C  1000.4 hPa  62%  31.2 km/h   40.2 km/h  16%  0.53 mm/h  16.1km  51%  Breezy and Partly Cloudy 
 20/05/2019 - 17:00  20.8°C  20.8°C  1000.3 hPa  64%  31.5 km/h   42.1 km/h  23%  0.78 mm/h  16.1km  48%  Possible Light Rain and Breezy 
 20/05/2019 - 18:00  19.7°C  19.7°C  1000.5 hPa  64%  30.5 km/h   45.7 km/h  22%  0.46 mm/h  16.1km  55%  Breezy and Partly Cloudy 
 20/05/2019 - 19:00  18.0°C  18.0°C  1001.1 hPa  66%  28.8 km/h   49.0 km/h  13%  0.16 mm/h  16.1km  65%  Breezy and Mostly Cloudy 
 20/05/2019 - 20:00  16.8°C  16.8°C  1001.6 hPa  65%  27.6 km/h   50.7 km/h  11%  0.14 mm/h  16.1km  75%  Breezy and Mostly Cloudy 
 20/05/2019 - 21:00  15.5°C  15.5°C  1002.1 hPa  66%  27.3 km/h   50.9 km/h  16%  0.12 mm/h  16.1km  81%  Breezy and Mostly Cloudy 
 20/05/2019 - 22:00  14.4°C  14.4°C  1002.7 hPa  67%  27.7 km/h   50.2 km/h  35%  0.33 mm/h  16.1km  90%  Breezy and Mostly Cloudy 
 20/05/2019 - 23:00  13.4°C  13.4°C  1003.1 hPa  68%  27.7 km/h   49.1 km/h  46%  0.59 mm/h  16.1km  95%  Breezy and Overcast 
 21/05/2019 - 00:00  12.7°C  12.7°C  1003.5 hPa  68%  26.8 km/h   47.6 km/h  39%  0.39 mm/h  16.1km  97%  Breezy and Overcast 
 21/05/2019 - 01:00  12.0°C  12.0°C  1003.7 hPa  69%  26.1 km/h   45.8 km/h  18%  0.11 mm/h  16.1km  98%  Breezy and Overcast 
 21/05/2019 - 02:00  11.4°C  11.4°C  1004.0 hPa  70%  25.7 km/h   44.4 km/h  7%  0.01 mm/h  16.1km  98%  Breezy and Overcast 
Test

 

Past weather and reports

Past weatherFind in this section the past weather conditions, weather archive, graphics, reports and statistics.

Current conditions

Current weather condition for MontrealAll you need to know about the current weather conditions for Montreal. Weather data is updated every 10 minutes.

Weather forecast

Current Montreal weatherSince 2004, celinium.com website has provided accurate weather forecast for Montreal's island.